createdAt,value
2022-11-28T00:02:14.482Z,87.00
2022-11-28T00:05:17.583Z,78.25
2022-11-28T00:08:20.088Z,75.00
2022-11-28T00:11:22.515Z,72.25
2022-11-28T00:14:24.691Z,71.50
2022-11-28T00:17:27.189Z,74.00
2022-11-28T00:20:31.693Z,72.75
2022-11-28T00:23:34.577Z,73.00
2022-11-28T00:26:39.613Z,73.50
2022-11-28T00:29:42.104Z,71.25
2022-11-28T00:32:44.169Z,73.50
2022-11-28T00:35:46.832Z,72.50
2022-11-28T00:38:49.636Z,67.50
2022-11-28T00:41:51.968Z,71.50
2022-11-28T00:44:54.000Z,69.50
2022-11-28T00:47:56.356Z,77.25
2022-11-28T00:51:10.211Z,67.75
2022-11-28T00:54:12.646Z,69.75
2022-11-28T00:57:14.740Z,71.50
2022-11-28T01:00:17.431Z,74.25
2022-11-28T01:03:19.601Z,66.50
2022-11-28T01:06:30.729Z,71.75
2022-11-28T01:09:32.910Z,71.25
2022-11-28T01:12:35.368Z,73.25
2022-11-28T01:15:40.771Z,75.00
2022-11-28T01:18:43.049Z,74.50
2022-11-28T01:21:45.349Z,73.75
2022-11-28T01:24:47.744Z,83.25
2022-11-28T01:27:49.860Z,77.00
2022-11-28T01:30:52.338Z,79.75
2022-11-28T01:33:55.296Z,77.00
2022-11-28T01:36:57.737Z,78.50
2022-11-28T01:39:59.876Z,77.50
2022-11-28T01:43:02.315Z,75.50
2022-11-28T01:46:05.631Z,69.00
2022-11-28T01:49:13.478Z,71.75
2022-11-28T01:52:17.881Z,73.00
2022-11-28T01:55:24.943Z,79.75
2022-11-28T01:58:27.786Z,73.50
2022-11-28T02:01:30.278Z,68.75
2022-11-28T02:04:33.308Z,75.75
2022-11-28T02:07:37.126Z,70.75
2022-11-28T02:11:20.890Z,70.50
2022-11-28T02:14:52.788Z,76.00
2022-11-28T02:17:57.912Z,73.00
2022-11-28T02:21:26.579Z,72.00
2022-11-28T02:24:37.863Z,72.00
2022-11-28T02:28:04.610Z,75.25
2022-11-28T02:31:25.079Z,72.50
2022-11-28T02:34:37.796Z,61.50
2022-11-28T02:37:59.137Z,75.25
2022-11-28T02:41:08.702Z,30.25
2022-11-28T02:44:20.422Z,74.50
2022-11-28T02:47:43.981Z,75.75
2022-11-28T02:51:10.820Z,73.75
2022-11-28T02:54:15.413Z,73.00
2022-11-28T02:57:17.536Z,71.50
2022-11-28T03:00:23.078Z,76.50
2022-11-28T03:04:03.018Z,80.25
2022-11-28T03:07:23.727Z,76.50
2022-11-28T03:10:45.517Z,79.00
2022-11-28T03:14:04.336Z,84.25
2022-11-28T03:17:30.708Z,83.00
2022-11-28T03:20:56.441Z,77.50
2022-11-28T03:24:02.325Z,73.25
2022-11-28T03:27:26.414Z,80.00
2022-11-28T03:30:44.037Z,83.75
2022-11-28T03:33:51.628Z,92.00
2022-11-28T03:36:59.308Z,74.75
2022-11-28T03:40:09.524Z,74.25
2022-11-28T03:43:17.189Z,77.00
2022-11-28T03:46:21.559Z,91.75
2022-11-28T03:49:32.579Z,85.50
2022-11-28T03:52:51.759Z,87.75
2022-11-28T03:56:01.080Z,78.00
2022-11-28T03:59:23.933Z,78.25
2022-11-28T04:02:37.820Z,82.50
2022-11-28T04:06:17.985Z,81.25
2022-11-28T04:10:03.541Z,99.25
2022-11-28T04:13:31.175Z,97.00
2022-11-28T04:16:41.855Z,82.50
2022-11-28T04:19:50.133Z,89.00
2022-11-28T04:22:56.022Z,92.25
2022-11-28T04:26:28.479Z,91.75
2022-11-28T04:29:38.423Z,90.50
2022-11-28T04:32:46.484Z,89.75
2022-11-28T04:35:51.987Z,83.75
2022-11-28T04:38:59.254Z,92.00
2022-11-28T04:42:05.401Z,94.00
2022-11-28T04:45:11.767Z,98.50
2022-11-28T04:48:13.855Z,91.00
2022-11-28T04:51:19.429Z,95.75
2022-11-28T04:54:31.671Z,70.75
2022-11-28T04:57:38.099Z,93.50
2022-11-28T05:00:41.124Z,87.75
2022-11-28T05:03:43.656Z,77.75
2022-11-28T05:06:45.884Z,91.25
2022-11-28T05:09:48.632Z,85.50
2022-11-28T05:12:50.704Z,77.50
2022-11-28T05:15:53.176Z,84.00
2022-11-28T05:18:55.258Z,83.75
2022-11-28T05:21:57.568Z,82.25
2022-11-28T05:24:59.743Z,60.75
2022-11-28T05:28:02.037Z,92.75
2022-11-28T05:31:05.017Z,87.00
2022-11-28T05:34:07.424Z,85.50
2022-11-28T05:37:09.526Z,83.50
2022-11-28T05:40:12.322Z,86.00
2022-11-28T05:43:14.552Z,85.75
2022-11-28T05:46:18.072Z,83.75
2022-11-28T05:49:21.733Z,89.75
2022-11-28T05:52:24.105Z,84.75
2022-11-28T05:55:26.272Z,85.00
2022-11-28T05:58:28.761Z,86.00
2022-11-28T06:01:30.858Z,88.25
2022-11-28T06:04:33.625Z,76.00
2022-11-28T06:07:35.861Z,90.50
2022-11-28T06:10:38.259Z,90.50
2022-11-28T06:13:41.192Z,91.75
2022-11-28T06:16:43.772Z,83.25
2022-11-28T06:19:45.943Z,91.50
2022-11-28T06:22:48.216Z,93.50
2022-11-28T06:25:50.486Z,92.00
2022-11-28T06:28:55.516Z,76.50
2022-11-28T06:31:57.715Z,90.00
2022-11-28T06:35:00.122Z,80.75
2022-11-28T06:38:02.395Z,91.50
2022-11-28T06:41:07.761Z,84.00
2022-11-28T06:44:14.576Z,89.00
2022-11-28T06:47:16.997Z,89.00
2022-11-28T06:50:19.105Z,96.50
2022-11-28T06:53:21.478Z,84.50
2022-11-28T06:56:24.032Z,87.75
2022-11-28T06:59:26.473Z,79.75
2022-11-28T07:02:28.703Z,86.75
2022-11-28T07:05:31.694Z,83.75
2022-11-28T07:08:34.273Z,84.50
2022-11-28T07:11:36.643Z,84.00
2022-11-28T07:14:38.917Z,79.50
2022-11-28T07:17:41.535Z,72.50
2022-11-28T07:20:43.910Z,73.50
2022-11-28T07:23:47.153Z,76.00
2022-11-28T07:26:49.240Z,77.25
2022-11-28T07:29:51.596Z,79.50
2022-11-28T07:32:53.652Z,77.25
2022-11-28T07:36:00.440Z,75.25
2022-11-28T07:39:04.757Z,75.00
2022-11-28T07:42:07.227Z,82.00
2022-11-28T07:45:10.186Z,75.00
2022-11-28T07:48:12.720Z,79.75
2022-11-28T07:51:23.708Z,73.00
2022-11-28T07:54:26.106Z,72.75
2022-11-28T07:57:28.348Z,74.50
2022-11-28T08:00:30.797Z,67.50
2022-11-28T08:03:33.022Z,73.25
2022-11-28T08:06:37.853Z,74.75
2022-11-28T08:09:40.510Z,72.00
2022-11-28T08:12:43.156Z,74.50
2022-11-28T08:15:45.264Z,75.00
2022-11-28T08:18:48.621Z,71.75
2022-11-28T08:21:51.541Z,70.00
2022-11-28T08:24:53.924Z,73.25
2022-11-28T08:27:56.088Z,74.50
2022-11-28T08:30:59.670Z,72.50
2022-11-28T08:34:04.778Z,70.50
2022-11-28T08:37:07.161Z,66.25
2022-11-28T08:40:09.522Z,63.00
2022-11-28T08:43:12.200Z,71.75
2022-11-28T08:46:16.672Z,67.75
2022-11-28T08:49:19.485Z,69.75
2022-11-28T08:52:22.273Z,72.50
2022-11-28T08:55:31.978Z,70.25
2022-11-28T08:58:34.973Z,68.25
2022-11-28T09:01:37.590Z,68.00
2022-11-28T09:04:39.909Z,66.25
2022-11-28T09:07:42.209Z,69.50
2022-11-28T09:10:45.618Z,66.25
2022-11-28T09:13:48.128Z,66.75
2022-11-28T09:16:50.554Z,68.25
2022-11-28T09:19:52.987Z,67.25
2022-11-28T09:22:55.765Z,68.50
2022-11-28T09:25:58.179Z,65.50
2022-11-28T09:29:00.485Z,67.50
2022-11-28T09:32:02.802Z,66.25
2022-11-28T09:35:05.349Z,66.50
2022-11-28T09:38:07.870Z,63.25
2022-11-28T09:41:39.879Z,69.75
2022-11-28T09:44:47.265Z,69.00
2022-11-28T09:48:01.979Z,63.25
2022-11-28T09:51:23.067Z,69.00
2022-11-28T09:54:43.246Z,70.25
2022-11-28T09:57:50.558Z,70.25
2022-11-28T10:01:11.260Z,70.50
2022-11-28T10:04:18.634Z,67.75
2022-11-28T10:07:43.490Z,66.75
2022-11-28T10:10:55.466Z,68.00
2022-11-28T10:14:17.141Z,65.00
2022-11-28T10:17:28.580Z,65.75
2022-11-28T10:20:40.063Z,63.50
2022-11-28T10:23:44.741Z,64.00
2022-11-28T10:26:50.361Z,69.00
2022-11-28T10:30:01.655Z,63.00
2022-11-28T10:33:12.535Z,60.25
2022-11-28T10:36:26.225Z,65.75
2022-11-28T10:39:28.970Z,65.25
2022-11-28T10:42:48.537Z,65.75
2022-11-28T10:45:56.527Z,60.00
2022-11-28T10:49:24.316Z,58.75
2022-11-28T10:52:31.480Z,63.00
2022-11-28T10:56:08.421Z,62.00
2022-11-28T10:59:31.594Z,62.00
2022-11-28T11:02:38.632Z,61.25
2022-11-28T11:05:41.422Z,65.00
2022-11-28T11:08:45.793Z,61.75
2022-11-28T11:11:58.369Z,64.50
2022-11-28T11:15:15.588Z,64.50
2022-11-28T11:18:33.322Z,62.25
2022-11-28T11:21:36.079Z,61.25
2022-11-28T11:24:38.311Z,63.50
2022-11-28T11:27:59.910Z,62.00
2022-11-28T11:31:14.525Z,56.33
2022-11-28T11:34:18.593Z,63.00
2022-11-28T11:37:38.171Z,61.00
2022-11-28T11:40:40.800Z,58.00
2022-11-28T11:43:43.028Z,59.67
2022-11-28T11:47:03.945Z,58.00
2022-11-28T11:50:06.815Z,61.25
2022-11-28T11:53:09.337Z,61.33
2022-11-28T11:56:12.677Z,62.00
2022-11-28T11:59:43.206Z,59.00
2022-11-28T12:02:46.971Z,61.25
2022-11-28T12:09:39.336Z,57.00
2022-11-28T12:12:42.137Z,61.50
2022-11-28T12:16:06.346Z,61.25
2022-11-28T12:19:34.670Z,61.00
2022-11-28T12:22:55.373Z,59.25
2022-11-28T12:26:08.883Z,54.33
2022-11-28T12:29:29.588Z,55.33
2022-11-28T12:32:54.437Z,54.67
2022-11-28T12:36:15.059Z,54.67
2022-11-28T12:39:55.357Z,51.33
2022-11-28T12:43:37.762Z,57.00
2022-11-28T12:46:50.428Z,53.33
2022-11-28T12:49:58.581Z,54.33
2022-11-28T12:53:29.013Z,58.33
2022-11-28T12:56:51.629Z,56.00
2022-11-28T13:00:08.743Z,54.33
2022-11-28T13:03:33.173Z,58.25
2022-11-28T13:07:10.562Z,58.00
2022-11-28T13:10:26.394Z,59.00
2022-11-28T13:13:37.751Z,58.25
2022-11-28T13:16:43.428Z,57.50
2022-11-28T13:19:59.225Z,62.00
2022-11-28T13:23:23.756Z,63.50
2022-11-28T13:26:50.853Z,60.25
2022-11-28T13:30:07.376Z,54.67
2022-11-28T13:33:30.622Z,59.75
2022-11-28T13:40:54.448Z,56.67
2022-11-28T13:44:15.481Z,57.00
2022-11-28T13:47:23.731Z,52.67
2022-11-28T13:50:33.837Z,50.33
2022-11-28T13:53:36.222Z,47.67
2022-11-28T13:56:38.253Z,53.67
2022-11-28T13:59:40.785Z,56.00
2022-11-28T14:02:46.074Z,52.00
2022-11-28T14:05:54.801Z,51.67
2022-11-28T14:09:07.861Z,48.33
2022-11-28T14:12:32.013Z,51.00
2022-11-28T14:16:07.790Z,47.33
2022-11-28T14:19:10.553Z,53.67
2022-11-28T14:22:42.019Z,53.67
2022-11-28T14:25:50.209Z,46.00
2022-11-28T14:28:55.021Z,50.33
2022-11-28T14:35:54.916Z,52.67
2022-11-28T14:39:05.411Z,51.00
2022-11-28T14:42:08.133Z,50.33
2022-11-28T14:45:41.209Z,51.33
2022-11-28T14:49:01.916Z,49.00
2022-11-28T14:55:45.581Z,45.00
2022-11-28T14:58:49.508Z,52.33
2022-11-28T15:02:10.703Z,52.67
2022-11-28T15:05:29.893Z,43.33
2022-11-28T15:08:38.264Z,48.00
2022-11-28T15:12:05.110Z,51.33
2022-11-28T15:15:13.278Z,45.33
2022-11-28T15:18:18.022Z,47.33
2022-11-28T15:43:13.611Z,57.00
2022-11-28T15:46:33.534Z,57.00
2022-11-28T15:49:36.142Z,55.00
2022-11-28T15:52:38.482Z,57.33
2022-11-28T15:55:40.649Z,52.67
2022-11-28T15:58:44.736Z,54.33
2022-11-28T16:02:33.056Z,54.25
2022-11-28T16:05:35.602Z,53.00
2022-11-28T16:09:07.335Z,49.67
2022-11-28T16:12:14.564Z,52.00
2022-11-28T16:15:21.258Z,47.67
2022-11-28T16:18:25.808Z,56.67
2022-11-28T16:21:50.185Z,55.67
2022-11-28T16:24:57.096Z,57.00
2022-11-28T16:27:59.634Z,55.00
2022-11-28T16:31:02.789Z,51.00
2022-11-28T16:34:05.958Z,56.33
2022-11-28T16:37:11.352Z,55.00
2022-11-28T16:40:17.221Z,53.00
2022-11-28T16:43:40.303Z,57.33
2022-11-28T16:46:58.805Z,55.00
2022-11-28T16:50:16.800Z,51.33
2022-11-28T16:53:38.977Z,53.00
2022-11-28T16:56:43.537Z,52.33
2022-11-28T16:59:46.736Z,51.33
2022-11-28T17:02:52.997Z,52.67
2022-11-28T17:05:55.308Z,56.00
2022-11-28T17:08:58.314Z,55.67
2022-11-28T17:12:06.636Z,56.33
2022-11-28T17:15:17.354Z,57.33
2022-11-28T17:18:19.569Z,50.00
2022-11-28T17:21:44.101Z,52.00
2022-11-28T17:24:47.527Z,55.67
2022-11-28T17:27:50.474Z,58.33
2022-11-28T17:30:52.586Z,55.33
2022-11-28T17:33:54.962Z,58.67
2022-11-28T17:36:58.601Z,54.33
2022-11-28T17:40:20.959Z,45.33
2022-11-28T17:43:23.303Z,59.00
2022-11-28T17:46:26.162Z,59.00
2022-11-28T17:49:29.362Z,54.33
2022-11-28T17:52:32.738Z,55.67
2022-11-28T17:55:35.779Z,53.00
2022-11-28T17:58:38.204Z,55.67
2022-11-28T18:01:41.154Z,57.67
2022-11-28T18:04:44.242Z,59.67
2022-11-28T18:07:47.312Z,57.33
2022-11-28T18:10:49.899Z,57.67
2022-11-28T18:13:53.097Z,54.33
2022-11-28T18:16:55.709Z,51.33
2022-11-28T18:19:58.444Z,58.75
2022-11-28T18:23:01.079Z,61.00
2022-11-28T18:26:09.543Z,42.67
2022-11-28T18:29:12.057Z,58.00
2022-11-28T18:32:14.143Z,53.67
2022-11-28T18:35:17.184Z,58.33
2022-11-28T18:38:19.283Z,59.33
2022-11-28T18:41:22.193Z,56.00
2022-11-28T18:44:25.117Z,54.00
2022-11-28T18:47:28.870Z,50.67
2022-11-28T18:50:34.739Z,56.00
2022-11-28T18:53:37.640Z,58.00
2022-11-28T18:56:40.151Z,55.00
2022-11-28T18:59:49.834Z,51.67
2022-11-28T19:02:55.350Z,55.00
2022-11-28T19:05:58.599Z,61.25
2022-11-28T19:09:02.392Z,57.67
2022-11-28T19:12:04.823Z,57.00
2022-11-28T19:15:10.788Z,52.00
2022-11-28T19:18:13.626Z,51.33
2022-11-28T19:21:17.905Z,59.00
2022-11-28T19:24:20.287Z,52.25
2022-11-28T19:27:22.637Z,51.25
2022-11-28T19:30:24.966Z,49.33
2022-11-28T19:33:27.171Z,52.00
2022-11-28T19:36:41.208Z,52.00
2022-11-28T19:39:44.538Z,58.00
2022-11-28T19:42:47.684Z,52.50
2022-11-28T19:45:55.577Z,50.25
2022-11-28T19:49:00.742Z,39.67
2022-11-28T19:52:07.865Z,55.50
2022-11-28T19:55:12.677Z,51.75
2022-11-28T19:58:16.299Z,54.25
2022-11-28T20:01:24.014Z,55.00
2022-11-28T20:04:28.367Z,57.75
2022-11-28T20:07:30.986Z,59.00
2022-11-28T20:10:40.247Z,55.25
2022-11-28T20:13:43.748Z,56.50
2022-11-28T20:16:47.481Z,54.75
2022-11-28T20:19:51.247Z,57.25
2022-11-28T20:22:53.425Z,54.00
2022-11-28T20:25:55.980Z,55.25
2022-11-28T20:28:58.766Z,53.50
2022-11-28T20:32:01.530Z,48.50
2022-11-28T20:35:05.029Z,54.50
2022-11-28T20:38:07.999Z,58.00
2022-11-28T20:41:12.245Z,52.25
2022-11-28T20:44:15.117Z,51.50
2022-11-28T20:47:17.307Z,45.75
2022-11-28T20:50:19.852Z,52.25
2022-11-28T20:53:26.581Z,48.25
2022-11-28T20:56:31.733Z,45.00
2022-11-28T20:59:33.867Z,48.25
2022-11-28T21:02:36.321Z,49.00
2022-11-28T21:05:38.434Z,43.25
2022-11-28T21:08:41.386Z,45.67
2022-11-28T21:11:56.703Z,51.75
2022-11-28T21:15:02.133Z,49.00
2022-11-28T21:18:04.702Z,48.50
2022-11-28T21:21:09.246Z,48.25
2022-11-28T21:24:12.837Z,48.25
2022-11-28T21:27:15.119Z,46.25
2022-11-28T21:30:17.244Z,50.75
2022-11-28T21:33:19.482Z,47.25
2022-11-28T21:36:22.744Z,47.50
2022-11-28T21:39:25.008Z,45.00
2022-11-28T21:42:27.204Z,39.33
2022-11-28T21:45:29.617Z,45.67
2022-11-28T21:48:32.372Z,48.00
2022-11-28T21:51:34.707Z,46.00
2022-11-28T21:54:36.964Z,48.67
2022-11-28T21:57:42.168Z,45.00
2022-11-28T22:00:53.515Z,48.33
2022-11-28T22:07:22.688Z,45.00
2022-11-28T22:10:26.360Z,42.67
2022-11-28T22:13:28.711Z,39.67
2022-11-28T22:16:31.163Z,45.00
2022-11-28T22:19:33.967Z,46.67
2022-11-28T22:22:36.321Z,45.00
2022-11-28T22:25:38.939Z,46.67
2022-11-28T22:28:41.653Z,49.00
2022-11-28T22:31:44.463Z,43.00
2022-11-28T22:34:47.028Z,43.33
2022-11-28T22:37:49.077Z,46.00
2022-11-28T22:40:51.481Z,42.67
2022-11-28T22:43:59.648Z,43.00
2022-11-28T22:47:02.780Z,46.67
2022-11-28T22:50:05.662Z,46.67
2022-11-28T22:53:08.686Z,44.33
2022-11-28T22:56:14.269Z,43.67
2022-11-28T22:59:17.362Z,48.00
2022-11-28T23:02:19.761Z,47.67
2022-11-28T23:05:22.681Z,39.33
2022-11-28T23:08:24.890Z,40.67
2022-11-28T23:11:31.103Z,44.67
2022-11-28T23:14:34.020Z,39.33
2022-11-28T23:17:36.516Z,43.00
2022-11-28T23:20:38.636Z,43.67
2022-11-28T23:23:41.162Z,43.00
2022-11-28T23:26:43.623Z,32.33
2022-11-28T23:29:48.112Z,39.67
2022-11-28T23:32:50.348Z,42.33
2022-11-28T23:35:53.060Z,45.00
2022-11-28T23:38:58.103Z,43.67
2022-11-28T23:42:00.326Z,44.33
2022-11-28T23:45:02.343Z,39.67
2022-11-28T23:48:04.852Z,38.33
2022-11-28T23:51:07.424Z,36.33
2022-11-28T23:54:11.124Z,47.00
2022-11-28T23:57:13.136Z,37.33
